createdAt,value
2022-10-08T00:00:26.313Z,77.28
2022-10-08T00:02:30.410Z,77.14
2022-10-08T00:04:33.290Z,77.16
2022-10-08T00:06:36.180Z,77.54
2022-10-08T00:08:41.301Z,77.53
2022-10-08T00:10:53.474Z,77.40
2022-10-08T00:12:56.212Z,77.19
2022-10-08T00:14:58.969Z,77.16
2022-10-08T00:17:01.761Z,77.10
2022-10-08T00:19:07.625Z,77.30
2022-10-08T00:21:14.408Z,77.44
2022-10-08T00:23:17.837Z,77.65
2022-10-08T00:25:20.571Z,77.23
2022-10-08T00:27:24.242Z,77.19
2022-10-08T00:29:27.046Z,77.99
2022-10-08T00:31:32.302Z,77.65
2022-10-08T00:33:36.061Z,77.83
2022-10-08T00:35:41.315Z,78.07
2022-10-08T00:37:44.014Z,77.41
2022-10-08T00:39:46.793Z,77.49
2022-10-08T00:41:52.231Z,77.46
2022-10-08T00:43:57.290Z,77.17
2022-10-08T00:46:00.125Z,77.69
2022-10-08T00:48:02.978Z,77.42
2022-10-08T00:50:11.557Z,77.48
2022-10-08T00:52:16.655Z,78.05
2022-10-08T00:54:21.763Z,77.90
2022-10-08T00:56:25.224Z,78.08
2022-10-08T00:58:29.161Z,78.15
2022-10-08T01:00:33.860Z,77.67
2022-10-08T01:02:36.485Z,78.72
2022-10-08T01:04:40.636Z,78.34
2022-10-08T01:06:51.659Z,78.62
2022-10-08T01:09:03.053Z,78.17
2022-10-08T01:11:20.092Z,78.45
2022-10-08T01:13:36.671Z,78.09
2022-10-08T01:15:43.886Z,78.01
2022-10-08T01:17:52.665Z,77.94
2022-10-08T01:20:31.779Z,77.74
2022-10-08T01:22:46.617Z,77.92
2022-10-08T01:25:10.087Z,78.36
2022-10-08T01:27:21.929Z,78.38
2022-10-08T01:29:30.066Z,78.10
2022-10-08T01:31:36.721Z,77.73
2022-10-08T01:33:46.780Z,77.88
2022-10-08T01:35:56.509Z,78.60
2022-10-08T01:38:03.145Z,78.25
2022-10-08T01:40:12.912Z,78.36
2022-10-08T01:42:19.017Z,78.71
2022-10-08T01:44:27.866Z,78.13
2022-10-08T01:46:32.708Z,78.08
2022-10-08T01:48:40.633Z,78.46
2022-10-08T01:50:50.864Z,77.84
2022-10-08T01:52:58.887Z,78.74
2022-10-08T01:55:06.235Z,78.36
2022-10-08T01:57:11.743Z,78.24
2022-10-08T01:59:18.041Z,78.36
2022-10-08T02:01:29.913Z,77.71
2022-10-08T02:03:32.707Z,77.79
2022-10-08T02:05:38.663Z,78.42
2022-10-08T02:07:43.453Z,77.89
2022-10-08T02:09:48.903Z,78.17
2022-10-08T02:11:50.764Z,78.72
2022-10-08T02:13:53.532Z,78.27
2022-10-08T02:16:06.827Z,78.31
2022-10-08T02:18:14.095Z,78.57
2022-10-08T02:20:22.379Z,78.19
2022-10-08T02:22:32.520Z,77.82
2022-10-08T02:24:41.539Z,78.58
2022-10-08T02:26:49.047Z,78.36
2022-10-08T02:28:58.448Z,78.11
2022-10-08T02:31:06.789Z,78.53
2022-10-08T02:33:15.577Z,78.30
2022-10-08T02:35:25.186Z,78.44
2022-10-08T02:37:33.856Z,78.32
2022-10-08T02:39:40.521Z,77.84
2022-10-08T02:41:47.677Z,78.36
2022-10-08T02:43:52.741Z,78.81
2022-10-08T02:46:01.214Z,78.57
2022-10-08T02:48:09.451Z,78.77
2022-10-08T02:50:22.681Z,78.67
2022-10-08T02:52:28.488Z,78.16
2022-10-08T02:54:34.637Z,78.18
2022-10-08T02:56:42.830Z,78.64
2022-10-08T02:58:46.181Z,78.59
2022-10-08T03:00:53.899Z,77.79
2022-10-08T03:03:03.504Z,78.77
2022-10-08T03:05:10.994Z,78.29
2022-10-08T03:07:15.563Z,78.62
2022-10-08T03:09:19.630Z,78.57
2022-10-08T03:11:23.346Z,78.04
2022-10-08T03:13:27.934Z,78.45
2022-10-08T03:15:33.075Z,78.45
2022-10-08T03:17:40.415Z,77.96
2022-10-08T03:19:43.169Z,78.75
2022-10-08T03:21:48.068Z,78.52
2022-10-08T03:23:52.269Z,78.20
2022-10-08T03:25:55.021Z,78.69
2022-10-08T03:27:57.758Z,78.33
2022-10-08T03:30:00.511Z,77.92
2022-10-08T03:32:03.251Z,78.60
2022-10-08T03:34:06.292Z,78.50
2022-10-08T03:36:09.058Z,78.21
2022-10-08T03:38:12.062Z,78.71
2022-10-08T03:40:16.381Z,77.96
2022-10-08T03:42:19.215Z,78.37
2022-10-08T03:44:21.974Z,77.55
2022-10-08T03:46:24.698Z,77.19
2022-10-08T03:48:27.442Z,77.08
2022-10-08T03:50:30.185Z,77.05
2022-10-08T03:52:32.961Z,76.88
2022-10-08T03:54:36.393Z,76.74
2022-10-08T03:56:40.508Z,77.17
2022-10-08T03:58:43.803Z,77.48
2022-10-08T04:00:57.596Z,77.13
2022-10-08T04:03:00.392Z,77.92
2022-10-08T04:05:03.167Z,77.43
2022-10-08T04:07:05.938Z,77.25
2022-10-08T04:09:10.638Z,77.34
2022-10-08T04:11:14.629Z,78.15
2022-10-08T04:13:19.282Z,78.59
2022-10-08T04:15:21.903Z,78.71
2022-10-08T04:17:24.764Z,78.42
2022-10-08T04:19:27.506Z,78.20
2022-10-08T04:21:31.437Z,77.41
2022-10-08T04:23:36.132Z,77.77
2022-10-08T04:25:38.949Z,77.66
2022-10-08T04:27:41.766Z,78.11
2022-10-08T04:29:45.871Z,78.09
2022-10-08T04:31:48.619Z,77.79
2022-10-08T04:33:52.597Z,77.35
2022-10-08T04:35:59.854Z,77.63
2022-10-08T04:38:03.141Z,77.54
2022-10-08T04:40:06.563Z,77.25
2022-10-08T04:42:09.356Z,77.20
2022-10-08T04:44:12.245Z,77.72
2022-10-08T04:46:18.322Z,77.24
2022-10-08T04:48:21.185Z,77.02
2022-10-08T04:50:23.961Z,78.00
2022-10-08T04:52:26.764Z,76.92
2022-10-08T04:54:29.592Z,77.45
2022-10-08T04:56:34.670Z,77.71
2022-10-08T04:58:37.448Z,77.23
2022-10-08T05:00:40.244Z,77.59
2022-10-08T05:02:44.858Z,77.55
2022-10-08T05:04:47.871Z,78.27
2022-10-08T05:06:50.691Z,77.86
2022-10-08T05:08:54.090Z,77.75
2022-10-08T05:10:56.870Z,77.70
2022-10-08T05:12:59.664Z,77.05
2022-10-08T05:15:02.413Z,77.86
2022-10-08T05:17:05.214Z,77.67
2022-10-08T05:19:09.542Z,77.49
2022-10-08T05:21:13.725Z,76.78
2022-10-08T05:23:16.575Z,76.64
2022-10-08T05:25:19.300Z,76.76
2022-10-08T05:27:22.065Z,76.96
2022-10-08T05:29:25.080Z,76.76
2022-10-08T05:31:29.689Z,76.07
2022-10-08T05:33:32.261Z,76.84
2022-10-08T05:35:39.379Z,76.70
2022-10-08T05:37:42.126Z,76.55
2022-10-08T05:39:45.446Z,76.90
2022-10-08T05:41:48.296Z,76.47
2022-10-08T05:43:51.872Z,77.10
2022-10-08T05:45:54.676Z,76.77
2022-10-08T05:47:57.478Z,76.64
2022-10-08T05:50:00.219Z,76.56
2022-10-08T05:52:04.348Z,75.97
2022-10-08T05:54:07.210Z,76.01
2022-10-08T05:56:12.068Z,76.21
2022-10-08T05:58:14.846Z,76.50
2022-10-08T06:00:17.781Z,76.79
2022-10-08T06:02:21.187Z,76.77
2022-10-08T06:04:24.096Z,77.02
2022-10-08T06:06:27.400Z,76.82
2022-10-08T06:08:31.774Z,77.14
2022-10-08T06:10:34.880Z,77.12
2022-10-08T06:12:37.674Z,77.36
2022-10-08T06:14:40.579Z,76.62
2022-10-08T06:16:43.780Z,76.68
2022-10-08T06:18:46.692Z,77.06
2022-10-08T06:20:49.529Z,77.38
2022-10-08T06:22:52.331Z,76.89
2022-10-08T06:24:58.800Z,76.43
2022-10-08T06:27:02.705Z,76.78
2022-10-08T06:29:07.532Z,77.37
2022-10-08T06:31:10.537Z,77.34
2022-10-08T06:33:13.392Z,77.14
2022-10-08T06:35:16.335Z,77.29
2022-10-08T06:37:19.054Z,76.99
2022-10-08T06:39:21.874Z,76.78
2022-10-08T06:41:26.885Z,77.25
2022-10-08T06:43:29.718Z,77.25
2022-10-08T06:45:32.457Z,76.98
2022-10-08T06:47:35.328Z,77.04
2022-10-08T06:49:39.729Z,76.98
2022-10-08T06:51:42.472Z,77.36
2022-10-08T06:53:48.053Z,76.87
2022-10-08T06:55:50.795Z,76.75
2022-10-08T06:57:55.089Z,77.04
2022-10-08T06:59:58.959Z,76.94
2022-10-08T07:02:01.858Z,77.04
2022-10-08T07:04:06.720Z,77.08
2022-10-08T07:06:11.900Z,76.74
2022-10-08T07:08:15.035Z,77.02
2022-10-08T07:10:18.634Z,77.13
2022-10-08T07:12:21.597Z,76.90
2022-10-08T07:14:25.753Z,76.51
2022-10-08T07:16:29.477Z,76.27
2022-10-08T07:18:33.067Z,77.02
2022-10-08T07:20:36.223Z,76.88
2022-10-08T07:22:38.956Z,76.77
2022-10-08T07:24:41.690Z,76.60
2022-10-08T07:26:44.473Z,76.47
2022-10-08T07:28:51.397Z,76.25
2022-10-08T07:30:55.648Z,76.61
2022-10-08T07:33:00.219Z,75.85
2022-10-08T07:35:03.081Z,75.31
2022-10-08T07:37:05.827Z,75.49
2022-10-08T07:39:12.242Z,75.50
2022-10-08T07:41:15.319Z,75.17
2022-10-08T07:43:19.890Z,74.49
2022-10-08T07:45:22.580Z,74.83
2022-10-08T07:47:26.830Z,74.77
2022-10-08T07:49:29.889Z,74.02
2022-10-08T07:51:34.449Z,74.02
2022-10-08T07:53:37.674Z,73.20
2022-10-08T07:55:40.476Z,72.15
2022-10-08T07:57:43.426Z,71.91
2022-10-08T07:59:46.180Z,72.17
2022-10-08T08:01:48.947Z,72.14
2022-10-08T08:03:55.565Z,70.90
2022-10-08T08:06:01.987Z,70.95
2022-10-08T08:08:04.884Z,71.52
2022-10-08T08:10:08.853Z,70.74
2022-10-08T08:12:12.005Z,70.52
2022-10-08T08:14:14.875Z,70.57
2022-10-08T08:16:19.056Z,69.44
2022-10-08T08:18:21.860Z,69.75
2022-10-08T08:20:26.155Z,67.99
2022-10-08T08:22:28.934Z,67.96
2022-10-08T08:24:32.224Z,68.15
2022-10-08T08:26:37.820Z,67.00
2022-10-08T08:28:41.242Z,66.88
2022-10-08T08:30:44.120Z,65.40
2022-10-08T08:32:47.045Z,65.23
2022-10-08T08:34:49.951Z,65.76
2022-10-08T08:36:54.953Z,64.57
2022-10-08T08:38:58.254Z,65.15
2022-10-08T08:41:13.547Z,63.98
2022-10-08T08:43:17.583Z,63.95
2022-10-08T08:45:46.768Z,63.89
2022-10-08T08:47:57.386Z,63.54
2022-10-08T08:50:04.768Z,63.15
2022-10-08T08:52:10.608Z,63.04
2022-10-08T08:54:13.594Z,62.86
2022-10-08T08:56:26.351Z,62.26
2022-10-08T08:58:35.640Z,62.90
2022-10-08T09:00:42.605Z,62.30
2022-10-08T09:02:52.465Z,62.17
2022-10-08T09:04:57.995Z,62.34
2022-10-08T09:07:04.791Z,62.08
2022-10-08T09:09:21.251Z,62.21
2022-10-08T09:11:24.960Z,62.02
2022-10-08T09:13:31.355Z,61.17
2022-10-08T09:15:37.636Z,61.56
2022-10-08T09:17:42.060Z,58.63
2022-10-08T09:19:45.348Z,57.98
2022-10-08T09:21:48.082Z,58.13
2022-10-08T09:23:50.935Z,58.19
2022-10-08T09:25:59.852Z,57.52
2022-10-08T09:28:04.673Z,56.82
2022-10-08T09:30:36.115Z,55.77
2022-10-08T09:32:40.231Z,55.52
2022-10-08T09:34:43.245Z,55.81
2022-10-08T09:36:49.050Z,55.04
2022-10-08T09:38:59.120Z,55.60
2022-10-08T09:41:06.050Z,55.48
2022-10-08T09:43:14.450Z,55.96
2022-10-08T09:45:33.821Z,56.45
2022-10-08T09:47:36.719Z,56.53
2022-10-08T09:49:39.710Z,56.90
2022-10-08T09:51:43.111Z,56.51
2022-10-08T09:53:52.015Z,56.29
2022-10-08T09:55:58.460Z,55.99
2022-10-08T09:58:05.201Z,55.63
2022-10-08T10:00:11.149Z,55.21
2022-10-08T10:02:28.752Z,53.56
2022-10-08T10:04:35.433Z,53.09
2022-10-08T10:06:45.479Z,52.71
2022-10-08T10:08:57.533Z,51.99
2022-10-08T10:11:35.516Z,51.85
2022-10-08T10:13:42.325Z,52.57
2022-10-08T10:15:49.475Z,52.48
2022-10-08T10:17:55.817Z,51.61
2022-10-08T10:20:04.756Z,51.57
2022-10-08T10:22:14.194Z,52.00
2022-10-08T10:24:37.728Z,52.78
2022-10-08T10:26:43.672Z,52.98
2022-10-08T10:28:52.323Z,53.43
2022-10-08T10:31:00.716Z,53.91
2022-10-08T10:33:11.055Z,53.28
2022-10-08T10:35:18.234Z,53.43
2022-10-08T10:37:30.781Z,54.22
2022-10-08T10:39:42.777Z,54.64
2022-10-08T10:41:52.199Z,54.49
2022-10-08T10:44:02.444Z,54.21
2022-10-08T10:46:17.588Z,54.63
2022-10-08T10:48:20.469Z,54.62
2022-10-08T10:50:29.006Z,54.69
2022-10-08T10:52:45.229Z,54.72
2022-10-08T10:55:08.616Z,55.02
2022-10-08T10:57:19.088Z,54.98
2022-10-08T10:59:38.894Z,55.02
2022-10-08T11:01:49.578Z,55.12
2022-10-08T11:04:01.757Z,55.12
2022-10-08T11:06:26.477Z,55.25
2022-10-08T11:08:40.237Z,55.15
2022-10-08T11:10:54.779Z,55.61
2022-10-08T11:13:03.828Z,55.82
2022-10-08T11:15:19.401Z,55.57
2022-10-08T11:17:52.503Z,55.05
2022-10-08T11:20:06.218Z,55.10
2022-10-08T11:22:19.172Z,55.56
2022-10-08T11:24:34.738Z,54.42
2022-10-08T11:26:44.165Z,55.00
2022-10-08T11:28:54.124Z,54.52
2022-10-08T11:31:07.094Z,54.46
2022-10-08T11:33:14.300Z,54.98
2022-10-08T11:35:25.447Z,55.33
2022-10-08T11:37:32.751Z,55.56
2022-10-08T11:39:46.323Z,55.39
2022-10-08T11:41:54.083Z,54.34
2022-10-08T11:44:01.259Z,54.46
2022-10-08T11:46:22.696Z,55.07
2022-10-08T11:48:36.531Z,54.85
2022-10-08T11:50:40.903Z,55.35
2022-10-08T11:52:43.916Z,56.15
2022-10-08T11:54:55.378Z,56.38
2022-10-08T11:57:14.547Z,55.98
2022-10-08T11:59:31.632Z,56.16
2022-10-08T12:01:50.603Z,56.19
2022-10-08T12:04:04.906Z,56.18
2022-10-08T12:06:19.684Z,55.84
2022-10-08T12:08:52.947Z,55.19
2022-10-08T12:10:55.751Z,55.98
2022-10-08T12:13:23.096Z,56.46
2022-10-08T12:15:51.242Z,56.85
2022-10-08T12:17:57.348Z,56.83
2022-10-08T12:20:18.220Z,57.26
2022-10-08T12:22:42.979Z,57.40
2022-10-08T12:24:56.169Z,57.45
2022-10-08T12:27:30.501Z,58.04
2022-10-08T12:29:54.207Z,59.40
2022-10-08T12:32:02.831Z,60.20
2022-10-08T12:34:17.879Z,60.65
2022-10-08T12:36:24.389Z,61.90
2022-10-08T12:38:39.194Z,62.09
2022-10-08T12:40:46.385Z,61.93
2022-10-08T12:42:53.320Z,61.67
2022-10-08T12:45:06.579Z,62.53
2022-10-08T12:47:19.427Z,62.47
2022-10-08T12:49:30.410Z,62.45
2022-10-08T12:51:40.517Z,61.34
2022-10-08T12:53:45.631Z,61.84
2022-10-08T12:55:51.179Z,60.16
2022-10-08T12:57:54.300Z,59.87
2022-10-08T12:59:59.701Z,59.12
2022-10-08T13:02:02.548Z,59.96
2022-10-08T13:04:10.518Z,60.41
2022-10-08T13:06:28.383Z,59.16
2022-10-08T13:08:37.192Z,59.63
2022-10-08T13:10:40.334Z,60.03
2022-10-08T13:12:43.685Z,60.17
2022-10-08T13:14:46.533Z,60.06
2022-10-08T13:16:49.279Z,60.11
2022-10-08T13:18:54.520Z,60.11
2022-10-08T13:20:58.506Z,59.62
2022-10-08T13:23:04.273Z,59.74
2022-10-08T13:25:35.521Z,57.79
2022-10-08T13:27:40.106Z,58.95
2022-10-08T13:29:42.753Z,59.66
2022-10-08T13:31:53.367Z,60.03
2022-10-08T13:33:56.203Z,59.35
2022-10-08T13:36:01.617Z,59.07
2022-10-08T13:38:09.206Z,58.78
2022-10-08T13:40:20.190Z,56.13
2022-10-08T13:42:26.112Z,54.49
2022-10-08T13:44:29.356Z,54.96
2022-10-08T13:46:32.180Z,55.94
2022-10-08T13:48:35.032Z,53.62
2022-10-08T13:50:43.226Z,54.73
2022-10-08T13:52:51.152Z,54.96
2022-10-08T13:54:59.080Z,54.87
2022-10-08T13:57:01.819Z,55.33
2022-10-08T13:59:04.622Z,53.24
2022-10-08T14:01:07.732Z,53.26
2022-10-08T14:03:11.283Z,53.92
2022-10-08T14:05:14.053Z,54.02
2022-10-08T14:07:23.042Z,53.38
2022-10-08T14:09:28.857Z,53.47
2022-10-08T14:11:33.043Z,52.91
2022-10-08T14:13:36.049Z,53.48
2022-10-08T14:15:39.112Z,53.96
2022-10-08T14:17:41.967Z,53.05
2022-10-08T14:19:44.760Z,52.21
2022-10-08T14:21:48.614Z,53.59
2022-10-08T14:23:51.538Z,54.35
2022-10-08T14:25:54.273Z,52.95
2022-10-08T14:27:58.558Z,51.76
2022-10-08T14:30:01.308Z,52.13
2022-10-08T14:32:05.040Z,53.30
2022-10-08T14:34:07.987Z,53.17
2022-10-08T14:36:16.736Z,53.59
2022-10-08T14:38:19.473Z,52.94
2022-10-08T14:40:23.786Z,52.81
2022-10-08T14:42:26.626Z,52.46
2022-10-08T14:44:30.709Z,53.25
2022-10-08T14:46:33.496Z,53.46
2022-10-08T14:48:36.307Z,53.23
2022-10-08T14:50:39.043Z,53.00
2022-10-08T14:52:44.602Z,52.85
2022-10-08T14:54:47.672Z,52.31
2022-10-08T14:56:50.502Z,52.49
2022-10-08T14:58:53.283Z,52.06
2022-10-08T15:00:58.558Z,52.16
2022-10-08T15:03:01.529Z,52.49
2022-10-08T15:05:04.530Z,51.94
2022-10-08T15:07:07.793Z,51.27
2022-10-08T15:09:11.687Z,51.69
2022-10-08T15:11:14.534Z,51.83
2022-10-08T15:13:17.302Z,51.23
2022-10-08T15:15:20.119Z,50.60
2022-10-08T15:17:24.265Z,50.90
2022-10-08T15:19:27.034Z,52.06
2022-10-08T15:21:29.901Z,51.28
2022-10-08T15:23:32.695Z,51.93
2022-10-08T15:25:35.452Z,52.29
2022-10-08T15:27:38.201Z,52.18
2022-10-08T15:29:40.893Z,52.21
2022-10-08T15:31:43.633Z,52.11
2022-10-08T15:33:49.894Z,51.62
2022-10-08T15:35:52.629Z,51.47
2022-10-08T15:37:55.388Z,51.65
2022-10-08T15:39:58.151Z,50.97
2022-10-08T15:42:01.129Z,51.24
2022-10-08T15:44:10.197Z,52.17
2022-10-08T15:46:16.057Z,53.48
2022-10-08T15:48:18.788Z,54.93
2022-10-08T15:50:22.943Z,53.53
2022-10-08T15:52:25.827Z,54.32
2022-10-08T15:54:28.615Z,55.30
2022-10-08T15:56:32.124Z,55.74
2022-10-08T15:58:49.944Z,55.44
2022-10-08T16:00:53.420Z,54.70
2022-10-08T16:02:57.119Z,54.97
2022-10-08T16:04:59.905Z,55.52
2022-10-08T16:07:04.059Z,55.83
2022-10-08T16:09:07.119Z,56.32
2022-10-08T16:11:15.004Z,56.69
2022-10-08T16:13:17.766Z,57.74
2022-10-08T16:15:20.523Z,57.95
2022-10-08T16:17:23.309Z,57.86
2022-10-08T16:19:27.310Z,58.22
2022-10-08T16:21:32.516Z,58.85
2022-10-08T16:23:38.447Z,59.01
2022-10-08T16:25:45.363Z,58.67
2022-10-08T16:27:48.533Z,58.09
2022-10-08T16:29:51.491Z,57.79
2022-10-08T16:31:54.243Z,57.81
2022-10-08T16:33:58.322Z,57.46
2022-10-08T16:36:04.636Z,57.97
2022-10-08T16:38:07.484Z,58.17
2022-10-08T16:40:12.432Z,58.18
2022-10-08T16:42:15.159Z,58.43
2022-10-08T16:44:19.346Z,58.69
2022-10-08T16:46:23.909Z,58.81
2022-10-08T16:48:26.565Z,59.22
2022-10-08T16:50:29.321Z,59.28
2022-10-08T16:52:32.088Z,59.52
2022-10-08T16:54:34.996Z,58.95
2022-10-08T16:56:41.032Z,59.13
2022-10-08T16:58:43.904Z,59.79
2022-10-08T17:00:46.642Z,59.87
2022-10-08T17:02:49.970Z,59.67
2022-10-08T17:04:53.207Z,60.24
2022-10-08T17:06:56.166Z,60.91
2022-10-08T17:08:59.013Z,60.79
2022-10-08T17:11:05.214Z,60.38
2022-10-08T17:13:09.418Z,60.36
2022-10-08T17:15:12.469Z,60.81
2022-10-08T17:17:15.420Z,61.17
2022-10-08T17:19:18.919Z,60.84
2022-10-08T17:21:22.733Z,61.12
2022-10-08T17:23:27.064Z,61.08
2022-10-08T17:25:29.844Z,61.14
2022-10-08T17:27:32.753Z,61.60
2022-10-08T17:29:36.797Z,61.20
2022-10-08T17:31:39.709Z,62.25
2022-10-08T17:33:42.985Z,62.04
2022-10-08T17:35:45.773Z,62.31
2022-10-08T17:37:48.566Z,61.80
2022-10-08T17:39:51.383Z,62.96
2022-10-08T17:41:54.147Z,62.64
2022-10-08T17:43:58.140Z,62.45
2022-10-08T17:46:09.070Z,63.11
2022-10-08T17:48:11.893Z,63.12
2022-10-08T17:50:14.902Z,63.54
2022-10-08T17:52:17.680Z,63.39
2022-10-08T17:54:20.922Z,63.49
2022-10-08T17:56:24.428Z,63.87
2022-10-08T17:58:27.442Z,63.63
2022-10-08T18:00:30.216Z,63.79
2022-10-08T18:02:34.396Z,63.83
2022-10-08T18:04:37.237Z,64.13
2022-10-08T18:06:41.870Z,64.58
2022-10-08T18:08:44.490Z,65.02
2022-10-08T18:10:47.292Z,65.17
2022-10-08T18:12:50.631Z,64.99
2022-10-08T18:14:53.587Z,64.98
2022-10-08T18:16:56.970Z,64.56
2022-10-08T18:19:04.880Z,65.15
2022-10-08T18:21:11.887Z,65.04
2022-10-08T18:23:14.605Z,65.19
2022-10-08T18:25:17.340Z,65.70
2022-10-08T18:27:20.090Z,65.71
2022-10-08T18:29:23.105Z,65.66
2022-10-08T18:31:28.180Z,65.47
2022-10-08T18:33:31.967Z,65.13
2022-10-08T18:35:36.182Z,65.60
2022-10-08T18:37:38.949Z,66.38
2022-10-08T18:39:41.712Z,65.82
2022-10-08T18:41:46.181Z,65.57
2022-10-08T18:43:49.970Z,66.22
2022-10-08T18:45:52.770Z,66.02
2022-10-08T18:47:55.503Z,66.72
2022-10-08T18:49:58.257Z,66.57
2022-10-08T18:52:02.673Z,66.78
2022-10-08T18:54:06.714Z,66.26
2022-10-08T18:56:11.836Z,66.18
2022-10-08T18:58:14.587Z,66.72
2022-10-08T19:00:17.675Z,66.55
2022-10-08T19:02:20.506Z,66.21
2022-10-08T19:04:23.560Z,66.33
2022-10-08T19:06:28.972Z,66.41
2022-10-08T19:08:33.096Z,66.38
2022-10-08T19:10:35.858Z,66.40
2022-10-08T19:12:38.621Z,66.79
2022-10-08T19:14:41.373Z,66.54
2022-10-08T19:16:45.198Z,66.37
2022-10-08T19:18:53.889Z,66.47
2022-10-08T19:20:56.643Z,67.58
2022-10-08T19:22:59.384Z,66.43
2022-10-08T19:25:03.513Z,67.13
2022-10-08T19:27:06.338Z,66.78
2022-10-08T19:29:14.478Z,66.69
2022-10-08T19:31:19.479Z,66.79
2022-10-08T19:33:22.251Z,67.18
2022-10-08T19:35:25.084Z,66.63
2022-10-08T19:37:27.820Z,66.99
2022-10-08T19:39:31.798Z,67.95
2022-10-08T19:41:35.897Z,67.52
2022-10-08T19:43:38.959Z,68.05
2022-10-08T19:45:42.060Z,67.31
2022-10-08T19:47:44.792Z,66.22
2022-10-08T19:49:47.547Z,66.07
2022-10-08T19:51:50.341Z,65.94
2022-10-08T19:53:53.860Z,65.75
2022-10-08T19:55:56.568Z,65.26
2022-10-08T19:58:00.633Z,65.33
2022-10-08T20:00:03.426Z,65.08
2022-10-08T20:02:07.002Z,64.28
2022-10-08T20:04:10.865Z,63.70
2022-10-08T20:06:15.055Z,63.35
2022-10-08T20:08:17.899Z,62.96
2022-10-08T20:10:20.678Z,62.90
2022-10-08T20:12:23.437Z,63.30
2022-10-08T20:14:27.948Z,63.12
2022-10-08T20:16:32.482Z,62.33
2022-10-08T20:18:35.589Z,61.65
2022-10-08T20:20:38.397Z,61.72
2022-10-08T20:22:41.160Z,61.60
2022-10-08T20:24:43.885Z,61.29
2022-10-08T20:26:48.806Z,61.77
2022-10-08T20:28:53.294Z,60.66
2022-10-08T20:30:57.375Z,61.27
2022-10-08T20:33:00.114Z,60.85
2022-10-08T20:35:02.801Z,60.65
2022-10-08T20:37:05.647Z,61.07
2022-10-08T20:39:08.818Z,60.93
2022-10-08T20:41:11.969Z,61.31
2022-10-08T20:43:15.537Z,61.08
2022-10-08T20:45:18.302Z,61.60
2022-10-08T20:47:22.504Z,61.51
2022-10-08T20:49:25.833Z,60.66
2022-10-08T20:51:30.362Z,60.99
2022-10-08T20:53:33.752Z,60.67
2022-10-08T20:55:36.897Z,60.31
2022-10-08T20:57:39.623Z,60.35
2022-10-08T20:59:42.382Z,60.35
2022-10-08T21:01:45.449Z,60.97
2022-10-08T21:03:49.868Z,61.26
2022-10-08T21:05:52.609Z,61.64
2022-10-08T21:07:55.384Z,61.27
2022-10-08T21:09:58.140Z,61.35
2022-10-08T21:12:00.908Z,60.87
2022-10-08T21:14:04.597Z,61.57
2022-10-08T21:16:09.309Z,61.29
2022-10-08T21:18:11.982Z,61.81
2022-10-08T21:20:16.205Z,62.94
2022-10-08T21:22:18.974Z,63.60
2022-10-08T21:24:21.732Z,64.47
2022-10-08T21:26:27.300Z,65.29
2022-10-08T21:28:31.022Z,65.75
2022-10-08T21:30:33.780Z,65.60
2022-10-08T21:32:36.566Z,65.72
2022-10-08T21:34:39.342Z,65.75
2022-10-08T21:36:44.544Z,65.50
2022-10-08T21:38:47.414Z,65.89
2022-10-08T21:40:55.540Z,65.29
2022-10-08T21:42:58.295Z,65.59
2022-10-08T21:45:01.007Z,65.51
2022-10-08T21:47:03.907Z,65.61
2022-10-08T21:49:08.735Z,65.82
2022-10-08T21:51:13.462Z,65.77
2022-10-08T21:53:17.481Z,66.08
2022-10-08T21:55:20.238Z,66.18
2022-10-08T21:57:23.020Z,66.34
2022-10-08T21:59:26.512Z,66.39
2022-10-08T22:01:30.737Z,66.63
2022-10-08T22:03:33.616Z,66.86
2022-10-08T22:05:36.351Z,67.13
2022-10-08T22:07:39.136Z,67.05
2022-10-08T22:09:43.309Z,67.09
2022-10-08T22:11:46.572Z,66.91
2022-10-08T22:13:49.830Z,67.33
2022-10-08T22:15:54.291Z,67.51
2022-10-08T22:17:57.155Z,67.34
2022-10-08T22:19:59.883Z,67.31
2022-10-08T22:22:02.905Z,67.16
2022-10-08T22:24:06.284Z,67.48
2022-10-08T22:26:13.698Z,67.58
2022-10-08T22:28:16.587Z,67.42
2022-10-08T22:30:19.399Z,67.37
2022-10-08T22:32:22.133Z,67.51
2022-10-08T22:34:25.132Z,67.53
2022-10-08T22:36:30.034Z,67.54
2022-10-08T22:38:33.193Z,67.55
2022-10-08T22:40:36.028Z,67.72
2022-10-08T22:42:40.130Z,68.12
2022-10-08T22:44:42.864Z,67.76
2022-10-08T22:46:45.627Z,67.71
2022-10-08T22:48:48.751Z,68.17
2022-10-08T22:50:51.538Z,68.22
2022-10-08T22:52:54.355Z,68.00
2022-10-08T22:54:57.173Z,67.98
2022-10-08T22:56:59.950Z,68.07
2022-10-08T22:59:04.180Z,67.61
2022-10-08T23:01:08.803Z,67.62
2022-10-08T23:03:11.655Z,67.91
2022-10-08T23:05:14.411Z,67.79
2022-10-08T23:07:17.155Z,67.75
2022-10-08T23:09:19.975Z,67.59
2022-10-08T23:11:22.766Z,68.04
2022-10-08T23:13:26.019Z,68.12
2022-10-08T23:15:30.118Z,68.25
2022-10-08T23:17:32.841Z,68.04
2022-10-08T23:19:35.647Z,68.51
2022-10-08T23:21:40.226Z,68.47
2022-10-08T23:23:50.293Z,68.77
2022-10-08T23:25:54.413Z,69.42
2022-10-08T23:27:57.122Z,69.63
2022-10-08T23:30:01.596Z,69.43
2022-10-08T23:32:05.839Z,69.09
2022-10-08T23:34:09.226Z,69.25
2022-10-08T23:36:15.934Z,68.88
2022-10-08T23:38:18.698Z,68.36
2022-10-08T23:40:21.444Z,69.01
2022-10-08T23:42:24.195Z,68.58
2022-10-08T23:44:26.981Z,68.87
2022-10-08T23:46:31.253Z,68.25
2022-10-08T23:48:35.627Z,68.75
2022-10-08T23:50:38.396Z,69.38
2022-10-08T23:52:41.145Z,69.44
2022-10-08T23:54:43.875Z,69.48
2022-10-08T23:56:46.730Z,69.43
2022-10-08T23:58:49.895Z,69.71
